Time;durP1;ratioP1;P1;durP2;ratioP2;P2;SDS_P1;SDS_P2;PMS_P1;PMS_P2;Temp;Humidity;BMP_temperature;BMP_pressure;BME280_temperature;BME280_humidity;BME280_pressure;Samples;Min_cycle;Max_cycle;Signal;HPM_P1;HPM_P2
2023/03/05 00:02:07;;;;;;;38.67;19.38;;;2.40;99.90;;;;;;5152253;27;20034;-71
2023/03/05 00:04:33;;;;;;;36.17;18.25;;;2.50;99.90;;;;;;5150584;27;20019;-71
2023/03/05 00:06:58;;;;;;;36.78;17.90;;;2.50;99.90;;;;;;5145193;27;20373;-71
2023/03/05 00:09:24;;;;;;;31.73;17.77;;;2.50;99.90;;;;;;5151629;27;20034;-73
2023/03/05 00:11:49;;;;;;;37.78;17.92;;;2.50;99.90;;;;;;5150376;27;20109;-74
2023/03/05 00:14:15;;;;;;;36.22;18.88;;;2.60;99.90;;;;;;5133380;27;20031;-72
2023/03/05 00:16:41;;;;;;;40.88;19.83;;;2.50;99.90;;;;;;5136129;27;20034;-73
2023/03/05 00:19:06;;;;;;;36.63;18.38;;;2.60;99.90;;;;;;5131392;27;20034;-72
2023/03/05 00:21:37;;;;;;;41.85;18.98;;;2.60;99.90;;;;;;5128989;27;20027;-72
2023/03/05 00:24:06;;;;;;;37.05;18.85;;;2.60;99.90;;;;;;5132255;27;20023;-73
2023/03/05 00:26:35;;;;;;;34.40;17.50;;;2.60;99.90;;;;;;5112875;27;20030;-73
2023/03/05 00:29:01;;;;;;;36.65;18.30;;;2.60;99.90;;;;;;5129907;27;20031;-71
2023/03/05 00:31:29;;;;;;;32.60;17.17;;;2.60;99.90;;;;;;5134977;27;21185;-72
2023/03/05 00:34:00;;;;;;;35.17;17.70;;;2.70;99.90;;;;;;5132886;27;20035;-71
2023/03/05 00:36:26;;;;;;;33.60;17.50;;;2.70;99.90;;;;;;5130618;27;20019;-73
2023/03/05 00:38:52;;;;;;;39.15;18.20;;;2.70;99.90;;;;;;5148557;27;20033;-73
2023/03/05 00:41:18;;;;;;;32.80;17.17;;;2.70;99.90;;;;;;5130986;27;20362;-71
2023/03/05 00:43:44;;;;;;;33.65;17.45;;;2.70;99.90;;;;;;5129793;27;20034;-71
2023/03/05 00:46:10;;;;;;;39.05;18.92;;;2.70;99.90;;;;;;5150236;27;20095;-72
2023/03/05 00:48:35;;;;;;;43.08;21.15;;;2.70;99.90;;;;;;5141217;27;20377;-71
2023/03/05 00:51:01;;;;;;;43.53;20.00;;;2.70;99.90;;;;;;5132541;27;20063;-71
2023/03/05 00:53:27;;;;;;;43.30;20.17;;;2.70;99.90;;;;;;5128873;27;20023;-71
2023/03/05 00:55:53;;;;;;;39.88;20.05;;;2.70;99.90;;;;;;5136610;27;20042;-73
2023/03/05 00:58:18;;;;;;;39.95;21.25;;;2.70;99.90;;;;;;5135025;27;20466;-72
2023/03/05 01:00:44;;;;;;;44.03;20.35;;;2.70;99.90;;;;;;5131087;27;20478;-71
2023/03/05 01:03:10;;;;;;;36.30;18.58;;;2.70;99.90;;;;;;5140096;27;20035;-71
2023/03/05 01:05:36;;;;;;;43.30;19.95;;;2.60;99.90;;;;;;5146643;27;20469;-71
2023/03/05 01:08:02;;;;;;;35.47;18.65;;;2.60;99.90;;;;;;5146810;27;20046;-71
2023/03/05 01:10:28;;;;;;;47.42;21.00;;;2.60;99.90;;;;;;5140397;27;20132;-72
2023/03/05 01:12:55;;;;;;;49.28;22.73;;;2.60;99.90;;;;;;5146670;27;20038;-72
2023/03/05 01:15:21;;;;;;;46.88;20.50;;;2.70;99.90;;;;;;5139660;27;20142;-72
2023/03/05 01:17:46;;;;;;;42.65;19.45;;;2.70;99.90;;;;;;5133152;27;20110;-72
2023/03/05 01:20:15;;;;;;;44.30;20.65;;;2.70;99.90;;;;;;5130599;27;20076;-72
2023/03/05 01:22:41;;;;;;;39.95;20.60;;;2.70;99.90;;;;;;5148318;27;20019;-73
2023/03/05 01:25:07;;;;;;;45.45;22.35;;;2.70;99.90;;;;;;5141993;27;20052;-72
2023/03/05 01:27:33;;;;;;;40.17;20.70;;;2.60;99.90;;;;;;5151811;27;20029;-72
2023/03/05 01:29:59;;;;;;;43.65;20.38;;;2.60;99.90;;;;;;5131571;27;20028;-72
2023/03/05 01:32:24;;;;;;;42.75;20.40;;;2.60;99.90;;;;;;5143970;27;20026;-72
2023/03/05 01:34:50;;;;;;;44.58;20.85;;;2.60;99.90;;;;;;5131751;27;20019;-72
2023/03/05 01:37:15;;;;;;;39.30;20.27;;;2.60;99.90;;;;;;5133769;27;20023;-72
2023/03/05 01:39:41;;;;;;;40.25;19.85;;;2.60;99.90;;;;;;5126564;27;20166;-72
2023/03/05 01:42:07;;;;;;;42.78;19.85;;;2.60;99.90;;;;;;5131597;27;20039;-72
2023/03/05 01:44:33;;;;;;;44.88;20.90;;;2.60;99.90;;;;;;5130526;27;20512;-72
2023/03/05 01:46:59;;;;;;;38.58;19.00;;;2.60;99.90;;;;;;5143643;27;20027;-73
2023/03/05 01:49:26;;;;;;;39.22;19.63;;;2.60;99.90;;;;;;5150696;27;20075;-72
2023/03/05 01:52:04;;;;;;;41.40;18.88;;;2.60;99.90;;;;;;5139002;27;20027;-72
2023/03/05 01:54:52;;;;;;;41.33;20.02;;;2.60;99.90;;;;;;5149729;27;20046;-72
2023/03/05 01:57:26;;;;;;;39.30;19.38;;;2.60;99.90;;;;;;5136902;27;20025;-72
2023/03/05 01:59:57;;;;;;;40.92;18.50;;;2.50;99.90;;;;;;5140277;27;20532;-72
2023/03/05 02:02:23;;;;;;;;;;;2.60;99.90;;;;;;5131156;28;20473;-72
2023/03/05 02:04:59;;;;;;;37.50;18.75;;;2.60;99.90;;;;;;5148891;27;20002;-72
2023/03/05 02:07:25;;;;;;;40.05;18.52;;;2.70;99.90;;;;;;5150649;27;20105;-72
2023/03/05 02:09:51;;;;;;;40.90;17.98;;;2.70;99.90;;;;;;5151179;27;20065;-72
2023/03/05 02:12:17;;;;;;;37.03;17.90;;;2.70;99.90;;;;;;5123067;27;20063;-72
2023/03/05 02:14:45;;;;;;;42.35;20.50;;;2.70;99.90;;;;;;5143363;27;20038;-72
2023/03/05 02:17:11;;;;;;;38.70;19.00;;;2.70;99.90;;;;;;5133575;27;20019;-72
2023/03/05 02:19:52;;;;;;;50.58;20.98;;;2.70;99.90;;;;;;5144775;27;20031;-72
2023/03/05 02:22:19;;;;;;;45.33;20.35;;;2.70;99.90;;;;;;5136685;27;20418;-72
2023/03/05 02:24:44;;;;;;;44.70;20.83;;;2.70;99.90;;;;;;5141119;27;20019;-72
2023/03/05 02:27:12;;;;;;;40.30;19.60;;;2.60;99.90;;;;;;5150971;27;20354;-72
2023/03/05 02:29:42;;;;;;;48.00;22.90;;;2.60;99.90;;;;;;5140723;27;20038;-72
2023/03/05 02:32:08;;;;;;;44.47;21.07;;;2.60;99.90;;;;;;5150547;27;20034;-72
2023/03/05 02:34:35;;;;;;;43.42;20.67;;;2.60;99.90;;;;;;5135718;27;20110;-72
2023/03/05 02:37:03;;;;;;;45.33;19.30;;;2.60;99.90;;;;;;5135199;27;20031;-71
2023/03/05 02:39:32;;;;;;;36.25;17.50;;;2.50;99.90;;;;;;5139368;27;20031;-72
2023/03/05 02:41:57;;;;;;;35.20;15.23;;;2.50;99.90;;;;;;5130922;27;20035;-72
2023/03/05 02:44:23;;;;;;;33.63;14.30;;;2.60;99.90;;;;;;5129549;27;20107;-72
2023/03/05 02:46:49;;;;;;;34.58;15.93;;;2.60;99.90;;;;;;5136065;27;20054;-72
2023/03/05 02:49:14;;;;;;;33.50;15.80;;;2.60;99.90;;;;;;5146423;27;20066;-72
2023/03/05 02:51:40;;;;;;;34.03;15.82;;;2.60;99.90;;;;;;5134483;27;20027;-72
2023/03/05 02:54:06;;;;;;;32.75;14.52;;;2.60;99.90;;;;;;5133984;27;20466;-72
2023/03/05 02:56:31;;;;;;;32.10;15.15;;;2.60;99.90;;;;;;5133972;27;20112;-73
2023/03/05 02:58:57;;;;;;;43.10;18.98;;;2.60;99.90;;;;;;5134317;27;20035;-72
2023/03/05 03:01:23;;;;;;;44.30;20.63;;;2.70;99.90;;;;;;5133057;27;20031;-71
2023/03/05 03:03:48;;;;;;;44.45;20.65;;;2.70;99.90;;;;;;5138069;27;20073;-70
2023/03/05 03:06:14;;;;;;;46.50;21.20;;;2.80;99.90;;;;;;5147333;27;20033;-71
2023/03/05 03:08:39;;;;;;;52.33;22.30;;;2.70;99.90;;;;;;5154780;27;20034;-72
2023/03/05 03:11:11;;;;;;;45.47;19.88;;;2.70;99.90;;;;;;5152821;27;20102;-72
2023/03/05 03:13:37;;;;;;;45.60;20.85;;;2.60;99.90;;;;;;5134497;27;20038;-72
2023/03/05 03:16:06;;;;;;;49.22;19.35;;;2.60;99.90;;;;;;5138148;27;20114;-72
2023/03/05 03:18:32;;;;;;;47.35;20.10;;;2.50;99.90;;;;;;5134778;27;20063;-72
2023/03/05 03:20:57;;;;;;;46.47;20.88;;;2.50;99.90;;;;;;5148059;27;20501;-72
2023/03/05 03:23:23;;;;;;;47.78;20.42;;;2.50;99.90;;;;;;5133108;27;20076;-72
2023/03/05 03:25:49;;;;;;;35.42;15.68;;;2.50;99.90;;;;;;5144250;27;20075;-72
2023/03/05 03:28:14;;;;;;;32.78;15.52;;;2.50;99.90;;;;;;5149854;27;20034;-72
2023/03/05 03:30:40;;;;;;;38.50;17.77;;;2.50;99.90;;;;;;5122588;27;20023;-71
2023/03/05 03:33:06;;;;;;;38.40;17.48;;;2.50;99.90;;;;;;5137288;27;20030;-71
2023/03/05 03:35:31;;;;;;;38.45;16.65;;;2.50;99.90;;;;;;5135654;27;20034;-71
2023/03/05 03:37:57;;;;;;;33.67;15.18;;;2.50;99.90;;;;;;5137906;27;20350;-72
2023/03/05 03:40:22;;;;;;;36.22;14.25;;;2.50;99.90;;;;;;5115545;27;20039;-72
2023/03/05 03:42:51;;;;;;;31.77;13.85;;;2.50;99.90;;;;;;5133659;27;20034;-72
2023/03/05 03:45:16;;;;;;;31.88;14.60;;;2.50;99.90;;;;;;5131843;27;20055;-72
2023/03/05 03:47:42;;;;;;;33.85;15.32;;;2.50;99.90;;;;;;5133390;27;20500;-72
2023/03/05 03:50:08;;;;;;;31.35;13.63;;;2.50;99.90;;;;;;5137295;27;20084;-71
2023/03/05 03:52:34;;;;;;;31.77;13.85;;;2.50;99.90;;;;;;5149725;27;20030;-71
2023/03/05 03:55:00;;;;;;;33.65;14.20;;;2.60;99.90;;;;;;5143369;27;20098;-72
2023/03/05 03:57:32;;;;;;;34.63;14.07;;;2.60;99.90;;;;;;5153159;27;20584;-72
2023/03/05 03:59:58;;;;;;;31.08;13.13;;;2.60;99.90;;;;;;5148510;27;20045;-72
2023/03/05 04:02:24;;;;;;;33.92;13.07;;;2.60;99.90;;;;;;5131835;27;20027;-71
2023/03/05 04:04:50;;;;;;;29.42;13.63;;;2.70;99.90;;;;;;5152434;27;20436;-71
2023/03/05 04:07:16;;;;;;;33.90;13.10;;;2.70;99.90;;;;;;5146246;27;20326;-71
2023/03/05 04:09:42;;;;;;;30.80;13.07;;;2.80;99.90;;;;;;5149849;27;20026;-72
2023/03/05 04:12:08;;;;;;;31.23;13.20;;;2.70;99.90;;;;;;5138297;27;20022;-72
2023/03/05 04:14:33;;;;;;;36.67;13.10;;;2.80;99.90;;;;;;5133056;27;20074;-72
2023/03/05 04:16:59;;;;;;;34.90;12.88;;;2.80;99.90;;;;;;5153116;27;20523;-72
2023/03/05 04:19:25;;;;;;;31.92;13.60;;;2.80;99.90;;;;;;5150496;27;20031;-72
2023/03/05 04:21:50;;;;;;;31.15;12.40;;;2.80;99.90;;;;;;5144222;27;20031;-72
2023/03/05 04:24:16;;;;;;;30.90;13.30;;;2.70;99.90;;;;;;5143542;27;20167;-72
2023/03/05 04:26:41;;;;;;;26.75;12.68;;;2.80;99.90;;;;;;5149743;27;20083;-72
2023/03/05 04:29:07;;;;;;;32.50;14.93;;;2.70;99.90;;;;;;5152551;27;20035;-72
2023/03/05 04:31:32;;;;;;;27.23;12.43;;;2.70;99.90;;;;;;5141023;27;20031;-72
2023/03/05 04:33:59;;;;;;;25.90;12.70;;;2.70;99.90;;;;;;5143717;27;20502;-71
2023/03/05 04:36:24;;;;;;;29.23;13.52;;;2.70;99.90;;;;;;5151589;27;20154;-72
2023/03/05 04:38:50;;;;;;;29.95;12.45;;;2.70;99.90;;;;;;5143618;27;20421;-72
2023/03/05 04:41:16;;;;;;;28.30;14.25;;;2.70;99.90;;;;;;5151693;27;20031;-71
2023/03/05 04:43:41;;;;;;;32.83;12.77;;;2.70;99.90;;;;;;5146008;27;20080;-71
2023/03/05 04:46:07;;;;;;;29.45;12.52;;;2.80;99.90;;;;;;5147399;27;20047;-71
2023/03/05 04:48:32;;;;;;;31.73;12.20;;;2.70;99.90;;;;;;5141091;27;20039;-71
2023/03/05 04:50:58;;;;;;;29.50;12.50;;;2.70;99.90;;;;;;5151857;27;20191;-72
2023/03/05 04:53:24;;;;;;;36.45;13.63;;;2.70;99.90;;;;;;5139023;27;20519;-71
2023/03/05 04:55:54;;;;;;;32.67;13.93;;;2.70;99.90;;;;;;5131912;27;20051;-72
2023/03/05 04:58:19;;;;;;;29.52;13.18;;;2.70;99.90;;;;;;5131049;27;20546;-72
2023/03/05 05:00:45;;;;;;;29.52;13.18;;;2.70;99.90;;;;;;5129583;27;20035;-71
2023/03/05 05:03:11;;;;;;;33.22;13.45;;;2.70;99.90;;;;;;5151684;27;20019;-73
2023/03/05 05:05:36;;;;;;;31.15;13.30;;;2.70;99.90;;;;;;5151935;27;20022;-71
2023/03/05 05:08:02;;;;;;;29.75;13.27;;;2.70;99.90;;;;;;5146700;27;20035;-70
2023/03/05 05:10:27;;;;;;;31.17;12.98;;;2.70;99.90;;;;;;5130655;27;20046;-71
2023/03/05 05:12:53;;;;;;;34.40;14.25;;;2.70;99.90;;;;;;5143228;27;20034;-71
2023/03/05 05:15:19;;;;;;;31.33;13.77;;;2.70;99.90;;;;;;5143668;27;20438;-71
2023/03/05 05:17:46;;;;;;;30.77;13.77;;;2.70;99.90;;;;;;5144053;27;20027;-71
2023/03/05 05:20:13;;;;;;;31.40;13.52;;;2.70;99.90;;;;;;5139244;27;20046;-71
2023/03/05 05:22:39;;;;;;;30.05;13.90;;;2.70;99.90;;;;;;5131787;27;20027;-71
2023/03/05 05:25:05;;;;;;;32.80;14.13;;;2.70;99.90;;;;;;5143772;27;20094;-71
2023/03/05 05:27:30;;;;;;;31.05;14.15;;;2.70;99.90;;;;;;5150363;27;20026;-71
2023/03/05 05:29:56;;;;;;;31.73;13.90;;;2.70;99.90;;;;;;5137801;27;20491;-71
2023/03/05 05:32:22;;;;;;;36.42;16.10;;;2.70;99.90;;;;;;5138373;27;20038;-72
2023/03/05 05:34:52;;;;;;;33.08;14.43;;;2.70;99.90;;;;;;5144483;27;20106;-71
2023/03/05 05:37:18;;;;;;;34.80;14.93;;;2.70;99.90;;;;;;5130804;27;20058;-72
2023/03/05 05:39:48;;;;;;;34.65;14.93;;;2.70;99.90;;;;;;5141290;27;20464;-71
2023/03/05 05:42:24;;;;;;;31.90;14.13;;;2.70;99.90;;;;;;5141021;27;20039;-71
2023/03/05 05:44:49;;;;;;;27.17;13.55;;;2.70;99.90;;;;;;5148840;27;20484;-71
2023/03/05 05:47:16;;;;;;;28.88;14.38;;;2.60;99.90;;;;;;5150848;27;20030;-71
2023/03/05 05:49:42;;;;;;;29.13;13.88;;;2.60;99.90;;;;;;5141838;27;20027;-71
2023/03/05 05:52:08;;;;;;;29.17;14.13;;;2.60;99.90;;;;;;5138456;27;20110;-72
2023/03/05 05:54:34;;;;;;;32.28;14.55;;;2.60;99.90;;;;;;5148560;27;20018;-71
2023/03/05 05:56:59;;;;;;;30.08;13.77;;;2.60;99.90;;;;;;5124315;28;20143;-71
2023/03/05 05:59:25;;;;;;;34.63;14.38;;;2.50;99.90;;;;;;5130243;27;20085;-72
2023/03/05 06:01:50;;;;;;;30.27;14.18;;;2.50;99.90;;;;;;5139349;27;20035;-72
2023/03/05 06:04:16;;;;;;;28.80;14.70;;;2.50;99.90;;;;;;5144504;27;20111;-73
2023/03/05 06:06:42;;;;;;;33.25;14.88;;;2.60;99.90;;;;;;5136952;27;20054;-72
2023/03/05 06:09:07;;;;;;;32.85;15.25;;;2.50;99.90;;;;;;5146572;27;20030;-71
2023/03/05 06:11:33;;;;;;;37.65;15.07;;;2.50;99.90;;;;;;5135322;27;20043;-73
2023/03/05 06:14:01;;;;;;;37.25;15.20;;;2.50;99.90;;;;;;5130851;27;20054;-73
2023/03/05 06:16:27;;;;;;;30.45;13.77;;;2.60;99.90;;;;;;5134670;27;20657;-73
2023/03/05 06:18:53;;;;;;;35.30;16.05;;;2.50;99.90;;;;;;5130670;27;20030;-73
2023/03/05 06:21:20;;;;;;;35.35;16.33;;;2.60;99.90;;;;;;5133165;27;20476;-72
2023/03/05 06:23:47;;;;;;;31.05;14.55;;;2.60;99.90;;;;;;5142469;27;20023;-72
2023/03/05 06:26:16;;;;;;;33.42;14.57;;;2.60;99.90;;;;;;5135832;27;20023;-72
2023/03/05 06:28:42;;;;;;;30.77;15.75;;;2.60;99.90;;;;;;5135341;27;20551;-73
2023/03/05 06:31:07;;;;;;;33.10;15.60;;;2.60;99.90;;;;;;5135733;27;20130;-72
2023/03/05 06:33:34;;;;;;;32.13;15.25;;;2.60;99.90;;;;;;5150368;27;20110;-72
2023/03/05 06:36:05;;;;;;;37.00;16.00;;;2.70;99.90;;;;;;5141921;27;20034;-73
2023/03/05 06:38:32;;;;;;;38.35;16.67;;;2.70;99.90;;;;;;5134742;27;20465;-72
2023/03/05 06:41:04;;;;;;;32.15;15.60;;;2.70;99.90;;;;;;5142267;27;20033;-72
2023/03/05 06:43:32;;;;;;;36.13;17.25;;;2.70;99.90;;;;;;5148093;27;20023;-72
2023/03/05 06:46:06;;;;;;;32.47;15.32;;;2.80;99.90;;;;;;5143300;27;20039;-72
2023/03/05 06:48:32;;;;;;;32.20;14.90;;;2.80;99.90;;;;;;5143245;27;20034;-71
2023/03/05 06:50:57;;;;;;;34.80;14.95;;;2.70;99.90;;;;;;5141785;27;20034;-71
2023/03/05 06:53:24;;;;;;;30.00;14.43;;;2.80;99.90;;;;;;5143676;27;20678;-72
2023/03/05 06:55:50;;;;;;;35.22;16.38;;;2.90;99.90;;;;;;5144889;27;20419;-71
2023/03/05 06:58:16;;;;;;;32.33;15.88;;;2.80;99.90;;;;;;5133345;27;20035;-73
2023/03/05 07:00:43;;;;;;;36.47;16.40;;;2.90;99.90;;;;;;5133747;27;20030;-73
2023/03/05 07:03:09;;;;;;;35.42;16.30;;;2.90;99.90;;;;;;5145574;27;20094;-71
2023/03/05 07:05:39;;;;;;;34.55;15.77;;;2.90;99.90;;;;;;5142827;27;20035;-72
2023/03/05 07:08:05;;;;;;;37.70;17.38;;;3.00;99.90;;;;;;5134033;27;20031;-73
2023/03/05 07:10:31;;;;;;;39.30;17.95;;;3.10;99.90;;;;;;5133085;27;20100;-73
2023/03/05 07:12:57;;;;;;;38.00;17.50;;;3.20;99.90;;;;;;5149780;27;20524;-71
2023/03/05 07:15:23;;;;;;;33.13;17.10;;;3.20;99.90;;;;;;5146864;27;20035;-73
2023/03/05 07:17:49;;;;;;;34.58;16.02;;;3.20;99.90;;;;;;5140956;27;20019;-72
2023/03/05 07:20:14;;;;;;;32.08;16.08;;;3.20;99.90;;;;;;5147876;27;20034;-72
2023/03/05 07:22:40;;;;;;;36.20;15.98;;;3.20;99.90;;;;;;5147166;27;20033;-73
2023/03/05 07:25:06;;;;;;;41.13;16.58;;;3.20;99.90;;;;;;5135150;27;20042;-72
2023/03/05 07:27:36;;;;;;;32.08;15.40;;;3.30;99.90;;;;;;5136244;27;20027;-72
2023/03/05 07:30:03;;;;;;;36.20;15.80;;;3.30;99.90;;;;;;5120086;27;20081;-72
2023/03/05 07:32:28;;;;;;;35.42;16.50;;;3.30;99.90;;;;;;5136508;27;20026;-71
2023/03/05 07:34:54;;;;;;;33.53;15.80;;;3.30;99.90;;;;;;5136125;27;20461;-72
2023/03/05 07:37:19;;;;;;;30.92;15.50;;;3.50;99.90;;;;;;5131528;27;20027;-72
2023/03/05 07:39:45;;;;;;;33.25;15.52;;;3.50;99.90;;;;;;5140180;27;20080;-70
2023/03/05 07:42:10;;;;;;;32.33;15.27;;;3.40;99.90;;;;;;5133958;27;20027;-74
2023/03/05 07:44:37;;;;;;;31.10;15.55;;;3.50;99.90;;;;;;5132417;27;20066;-75
2023/03/05 07:47:03;;;;;;;33.40;16.25;;;3.60;99.90;;;;;;5144099;27;20476;-74
2023/03/05 07:49:29;;;;;;;32.15;16.13;;;3.70;99.90;;;;;;5150825;27;20027;-71
2023/03/05 07:51:55;;;;;;;32.58;15.45;;;3.70;99.90;;;;;;5136041;27;20045;-72
2023/03/05 07:54:20;;;;;;;32.00;15.80;;;3.70;99.90;;;;;;5132228;27;20496;-74
2023/03/05 07:56:46;;;;;;;36.33;15.18;;;3.70;99.90;;;;;;5142605;27;20023;-73
2023/03/05 07:59:12;;;;;;;29.58;14.55;;;3.60;99.90;;;;;;5151679;27;20053;-73
2023/03/05 08:01:38;;;;;;;31.67;15.65;;;3.70;99.90;;;;;;5138096;27;20031;-73
2023/03/05 08:04:05;;;;;;;35.78;16.83;;;3.70;99.90;;;;;;5132231;27;20141;-74
2023/03/05 08:06:31;;;;;;;33.42;15.57;;;3.70;99.90;;;;;;5137425;27;20523;-73
2023/03/05 08:08:57;;;;;;;37.78;16.00;;;3.80;99.90;;;;;;5133445;27;20031;-74
2023/03/05 08:11:23;;;;;;;30.52;15.50;;;3.90;99.90;;;;;;5144686;27;20042;-74
2023/03/05 08:13:49;;;;;;;28.50;14.45;;;3.90;99.90;;;;;;5146699;27;20023;-77
2023/03/05 08:16:17;;;;;;;29.42;14.73;;;4.00;99.90;;;;;;5140108;27;20111;-76
2023/03/05 08:18:43;;;;;;;33.83;14.90;;;4.00;99.90;;;;;;5153039;27;20058;-77
2023/03/05 08:21:17;;;;;;;33.13;15.63;;;4.10;99.90;;;;;;5138749;27;20107;-75
2023/03/05 08:23:43;;;;;;;30.77;16.38;;;4.20;99.90;;;;;;5133293;27;20027;-76
2023/03/05 08:26:13;;;;;;;32.35;15.48;;;4.20;99.90;;;;;;5148641;27;20488;-72
2023/03/05 08:28:39;;;;;;;30.67;14.18;;;4.20;99.90;;;;;;5152713;27;20708;-72
2023/03/05 08:31:09;;;;;;;32.10;15.30;;;4.20;99.90;;;;;;5136231;27;20099;-68
2023/03/05 08:33:34;;;;;;;28.92;14.32;;;4.20;99.90;;;;;;5144848;27;20019;-70
2023/03/05 08:36:00;;;;;;;33.95;16.08;;;4.20;99.90;;;;;;5140869;27;20035;-70
2023/03/05 08:38:25;;;;;;;29.65;14.20;;;4.20;99.90;;;;;;5141571;27;20584;-71
2023/03/05 08:40:51;;;;;;;33.22;15.40;;;4.30;99.90;;;;;;5146795;27;20035;-69
2023/03/05 08:43:17;;;;;;;28.23;13.90;;;4.40;99.90;;;;;;5142131;27;20027;-72
2023/03/05 08:45:42;;;;;;;32.47;14.30;;;4.40;99.90;;;;;;5146778;27;20107;-71
2023/03/05 08:48:08;;;;;;;34.42;14.68;;;4.50;99.90;;;;;;5139841;27;20107;-70
2023/03/05 08:50:35;;;;;;;31.50;14.55;;;4.50;99.90;;;;;;5142522;27;20038;-71
2023/03/05 08:53:01;;;;;;;32.65;14.32;;;4.60;99.90;;;;;;5144695;27;20027;-70
2023/03/05 08:55:27;;;;;;;26.90;14.82;;;4.70;99.90;;;;;;5141350;27;20023;-71
2023/03/05 08:57:53;;;;;;;33.58;15.60;;;4.70;99.90;;;;;;5136279;27;20093;-70
2023/03/05 09:00:19;;;;;;;28.38;15.25;;;4.70;99.90;;;;;;5140652;27;20481;-70
2023/03/05 09:02:45;;;;;;;28.02;14.65;;;4.80;99.90;;;;;;5141357;27;20050;-70
2023/03/05 09:05:10;;;;;;;28.58;14.63;;;4.90;99.90;;;;;;5140785;27;20465;-71
2023/03/05 09:07:36;;;;;;;25.42;13.73;;;4.90;99.90;;;;;;5138350;27;20031;-70
2023/03/05 09:10:04;;;;;;;31.00;14.77;;;5.00;99.90;;;;;;5132338;27;20034;-70
2023/03/05 09:12:29;;;;;;;28.23;13.82;;;5.00;99.90;;;;;;5137931;27;20118;-69
2023/03/05 09:14:55;;;;;;;31.83;15.63;;;5.00;99.90;;;;;;5141561;27;20113;-69
2023/03/05 09:17:21;;;;;;;29.83;15.15;;;5.10;99.90;;;;;;5144240;27;20023;-70
2023/03/05 09:19:47;;;;;;;32.30;16.13;;;5.10;99.90;;;;;;5137259;27;20661;-69
2023/03/05 09:22:12;;;;;;;29.27;15.05;;;5.20;99.90;;;;;;5140505;27;20076;-68
2023/03/05 09:24:38;;;;;;;30.58;15.98;;;5.30;99.90;;;;;;5140611;27;20080;-68
2023/03/05 09:27:04;;;;;;;31.48;15.82;;;5.20;99.90;;;;;;5143212;27;20097;-69
2023/03/05 09:29:30;;;;;;;32.20;16.30;;;5.30;99.90;;;;;;5147736;27;20099;-69
2023/03/05 09:31:56;;;;;;;32.25;16.00;;;5.20;99.90;;;;;;5137325;27;20031;-69
2023/03/05 09:34:22;;;;;;;26.98;15.45;;;5.20;99.90;;;;;;5131684;27;20591;-69
2023/03/05 09:36:48;;;;;;;33.90;16.27;;;5.20;99.90;;;;;;5139347;27;20098;-69
2023/03/05 09:39:15;;;;;;;34.50;17.15;;;5.30;99.90;;;;;;5138860;27;20109;-69
2023/03/05 09:42:05;;;;;;;33.15;17.05;;;5.30;99.90;;;;;;5132678;27;20035;-70
2023/03/05 09:44:52;;;;;;;34.80;17.60;;;5.40;99.90;;;;;;5144508;27;20033;-70
2023/03/05 09:47:49;;;;;;;30.55;16.25;;;5.40;99.90;;;;;;5130528;27;20367;-69
2023/03/05 09:50:31;;;;;;;30.98;16.27;;;5.50;99.90;;;;;;5129750;27;20053;-69
2023/03/05 09:53:14;;;;;;;33.58;16.30;;;5.40;99.90;;;;;;5130461;27;20082;-70
2023/03/05 09:55:46;;;;;;;33.10;15.45;;;5.30;99.90;;;;;;5139538;27;20426;-68
2023/03/05 09:58:11;;;;;;;36.28;17.48;;;5.30;99.90;;;;;;5135693;27;20027;-69
2023/03/05 10:00:48;;;;;;;27.60;16.15;;;5.30;99.90;;;;;;5129804;27;20076;-69
2023/03/05 10:03:39;;;;;;;31.10;15.10;;;5.30;99.90;;;;;;5130359;27;20048;-69
2023/03/05 10:06:27;;;;;;;32.58;15.88;;;5.40;99.90;;;;;;5101441;27;20092;-70
2023/03/05 10:08:58;;;;;;;29.08;15.63;;;5.50;99.90;;;;;;5149639;27;20023;-70
2023/03/05 10:11:52;;;;;;;32.67;16.10;;;5.60;99.90;;;;;;5140395;27;20027;-70
2023/03/05 10:14:25;;;;;;;28.05;14.60;;;5.70;99.90;;;;;;5143374;27;20558;-71
2023/03/05 10:17:09;;;;;;;30.42;15.27;;;5.70;99.90;;;;;;5139507;27;20039;-71
2023/03/05 10:19:54;;;;;;;31.80;16.60;;;5.80;99.90;;;;;;5134351;27;20030;-70
2023/03/05 10:22:29;;;;;;;33.92;17.30;;;5.90;99.90;;;;;;5150440;27;20033;-70
2023/03/05 10:25:23;;;;;;;27.80;15.00;;;5.80;99.90;;;;;;5130972;27;20026;-68
2023/03/05 10:27:59;;;;;;;35.53;17.38;;;5.70;99.90;;;;;;5130972;27;20561;-68
2023/03/05 10:30:50;;;;;;;29.17;15.35;;;5.70;99.90;;;;;;5134946;27;20026;-69
2023/03/05 10:33:25;;;;;;;34.42;17.90;;;5.80;99.90;;;;;;5141855;27;20106;-69
2023/03/05 10:36:15;;;;;;;31.20;16.23;;;5.80;99.90;;;;;;5133143;27;20031;-69
2023/03/05 10:39:03;;;;;;;34.03;17.30;;;5.80;99.90;;;;;;5136681;27;20477;-68
2023/03/05 10:41:55;;;;;;;34.53;17.70;;;5.90;99.90;;;;;;5134861;27;20477;-68
2023/03/05 10:44:43;;;;;;;32.95;17.15;;;6.00;99.90;;;;;;5129408;27;20072;-68
2023/03/05 10:47:40;;;;;;;33.53;16.65;;;6.10;99.90;;;;;;5145189;27;20034;-68
2023/03/05 10:50:20;;;;;;;27.95;15.95;;;6.20;99.90;;;;;;5130125;27;20027;-67
2023/03/05 10:52:51;;;;;;;35.50;16.55;;;6.30;99.90;;;;;;5130798;27;20044;-69
2023/03/05 10:55:19;;;;;;;26.92;15.95;;;6.30;99.90;;;;;;5129277;27;20031;-69
2023/03/05 10:57:45;;;;;;;34.17;16.92;;;6.40;99.90;;;;;;5140218;27;20091;-70
2023/03/05 11:00:18;;;;;;;32.70;16.58;;;6.40;99.90;;;;;;5140509;27;20062;-70
2023/03/05 11:02:59;;;;;;;34.58;16.92;;;6.40;99.90;;;;;;5138740;27;20031;-68
2023/03/05 11:05:37;;;;;;;38.40;16.95;;;6.30;99.90;;;;;;5128878;27;20023;-68
2023/03/05 11:08:23;;;;;;;31.27;16.33;;;6.20;99.90;;;;;;5148963;27;20524;-69
2023/03/05 11:11:14;;;;;;;36.47;16.77;;;6.10;99.90;;;;;;5147918;27;20066;-69
2023/03/05 11:13:46;;;;;;;33.47;15.70;;;5.90;99.90;;;;;;5123400;27;20042;-72
2023/03/05 11:16:21;;;;;;;33.50;16.77;;;5.70;99.90;;;;;;5138115;27;20099;-74
2023/03/05 11:18:47;;;;;;;34.42;14.65;;;5.60;99.90;;;;;;5128202;27;20490;-73
2023/03/05 11:21:26;;;;;;;27.92;14.60;;;5.50;99.90;;;;;;5131895;27;20031;-69
2023/03/05 11:24:15;;;;;;;40.85;16.90;;;5.40;99.90;;;;;;5142503;27;20030;-71
2023/03/05 11:26:56;;;;;;;34.42;16.35;;;5.30;99.90;;;;;;5135067;27;20031;-74
2023/03/05 11:29:26;;;;;;;39.38;18.00;;;5.20;99.90;;;;;;5133591;27;20608;-74
2023/03/05 11:31:52;;;;;;;33.72;17.23;;;5.20;99.90;;;;;;5152726;27;20083;-72
2023/03/05 11:34:18;;;;;;;36.83;18.20;;;5.20;99.90;;;;;;5138592;27;20019;-75
2023/03/05 11:37:02;;;;;;;36.58;18.67;;;5.20;99.90;;;;;;5149942;27;20466;-73
2023/03/05 11:39:31;;;;;;;36.00;17.00;;;5.20;99.90;;;;;;5133963;27;20027;-73
2023/03/05 11:42:00;;;;;;;34.40;16.55;;;5.10;99.90;;;;;;5146711;27;20064;-77
2023/03/05 11:44:45;;;;;;;35.63;17.17;;;5.00;99.90;;;;;;5133646;27;20080;-81
2023/03/05 11:47:39;;;;;;;36.22;16.90;;;5.00;99.90;;;;;;5138685;27;20465;-76
2023/03/05 11:50:14;;;;;;;31.88;16.90;;;5.00;99.90;;;;;;5145429;27;20027;-71
2023/03/05 11:52:49;;;;;;;31.20;15.20;;;4.90;99.90;;;;;;5157843;27;20027;-77
2023/03/05 11:55:42;;;;;;;34.47;16.88;;;4.90;99.90;;;;;;5151567;27;20022;-73
2023/03/05 11:58:31;;;;;;;35.10;17.05;;;4.90;99.90;;;;;;5150689;27;20023;-71
2023/03/05 12:00:58;;;;;;;30.00;16.35;;;4.90;99.90;;;;;;5143259;27;20038;-75
2023/03/05 12:03:37;;;;;;;38.13;17.63;;;4.80;99.90;;;;;;5151283;27;20022;-74
2023/03/05 12:06:39;;;;;;;35.30;16.15;;;4.80;99.90;;;;;;5132965;27;20042;-74
2023/03/05 12:09:42;;;;;;;32.45;15.85;;;4.80;99.90;;;;;;5143785;27;20033;-73
2023/03/05 12:12:34;;;;;;;35.65;17.63;;;4.90;99.90;;;;;;5145386;27;20109;-74
2023/03/05 12:15:11;;;;;;;33.65;16.00;;;4.90;99.90;;;;;;5150816;27;20068;-74
2023/03/05 12:18:00;;;;;;;35.10;16.33;;;4.90;99.90;;;;;;5150487;27;20030;-74
2023/03/05 12:20:44;;;;;;;35.55;17.98;;;4.90;99.90;;;;;;5142608;27;20027;-74
2023/03/05 12:23:16;;;;;;;32.65;16.75;;;5.00;99.90;;;;;;5147798;27;20026;-72
2023/03/05 12:25:47;;;;;;;36.55;17.75;;;5.00;99.90;;;;;;5146045;27;20072;-74
2023/03/05 12:28:33;;;;;;;34.28;17.45;;;5.00;99.90;;;;;;5151864;27;20069;-73
2023/03/05 12:31:08;;;;;;;28.67;15.20;;;5.00;99.90;;;;;;5123334;27;20035;-73
2023/03/05 12:33:42;;;;;;;27.20;13.27;;;5.10;99.90;;;;;;5150877;27;20027;-73
2023/03/05 12:36:19;;;;;;;34.95;13.60;;;5.00;99.90;;;;;;5131712;27;20080;-72
2023/03/05 12:38:53;;;;;;;21.33;10.48;;;5.00;99.90;;;;;;5131958;27;20050;-74
2023/03/05 12:41:21;;;;;;;23.00;11.55;;;5.00;99.90;;;;;;5130874;27;20073;-74
2023/03/05 12:44:05;;;;;;;24.25;12.60;;;5.00;99.90;;;;;;5149124;27;20353;-74
2023/03/05 12:46:37;;;;;;;24.38;11.95;;;5.00;99.90;;;;;;5132135;27;20156;-74
2023/03/05 12:49:25;;;;;;;25.67;12.90;;;5.00;99.90;;;;;;5147786;27;20037;-73
2023/03/05 12:51:53;;;;;;;29.58;12.63;;;5.00;99.90;;;;;;5133574;27;20381;-74